createdAt,value
2018-07-12T00:01:40.031Z,59.51
2018-07-12T00:04:06.449Z,58.84
2018-07-12T00:06:32.874Z,58.43
2018-07-12T00:08:59.306Z,59.15
2018-07-12T00:11:25.742Z,59.20
2018-07-12T00:13:52.401Z,58.80
2018-07-12T00:16:18.836Z,59.39
2018-07-12T00:18:45.275Z,60.31
2018-07-12T00:21:11.732Z,58.47
2018-07-12T00:23:38.164Z,58.23
2018-07-12T00:26:04.621Z,58.63
2018-07-12T00:28:31.066Z,59.03
2018-07-12T00:30:57.485Z,58.31
2018-07-12T00:33:23.914Z,59.43
2018-07-12T00:35:50.366Z,60.89
2018-07-12T00:38:16.807Z,61.36
2018-07-12T00:40:43.245Z,61.71
2018-07-12T00:43:09.666Z,62.38
2018-07-12T00:45:36.108Z,61.06
2018-07-12T00:48:02.571Z,59.67
2018-07-12T00:50:29.030Z,59.85
2018-07-12T00:52:55.480Z,61.90
2018-07-12T00:55:21.941Z,62.58
2018-07-12T00:57:48.405Z,63.05
2018-07-12T01:00:15.069Z,63.03
2018-07-12T01:02:41.513Z,62.99
2018-07-12T01:05:07.949Z,63.17
2018-07-12T01:07:34.374Z,63.14
2018-07-12T01:10:01.659Z,63.47
2018-07-12T01:12:28.078Z,63.20
2018-07-12T01:14:54.528Z,63.53
2018-07-12T01:17:20.949Z,63.40
2018-07-12T01:19:47.387Z,63.34
2018-07-12T01:22:13.833Z,63.29
2018-07-12T01:24:40.275Z,63.13
2018-07-12T01:27:06.706Z,62.96
2018-07-12T01:29:33.152Z,63.43
2018-07-12T01:31:59.577Z,62.12
2018-07-12T01:34:26.026Z,63.05
2018-07-12T01:36:52.634Z,63.16
2018-07-12T01:39:19.267Z,63.25
2018-07-12T01:41:45.717Z,61.87
2018-07-12T01:44:12.160Z,63.42
2018-07-12T01:46:38.617Z,62.68
2018-07-12T01:49:05.070Z,62.98
2018-07-12T01:51:31.526Z,62.61
2018-07-12T01:53:57.975Z,63.40
2018-07-12T01:56:24.428Z,63.48
2018-07-12T01:58:50.878Z,63.01
2018-07-12T02:01:17.321Z,61.80
2018-07-12T02:03:43.746Z,61.10
2018-07-12T02:06:10.181Z,62.43
2018-07-12T02:08:36.645Z,62.94
2018-07-12T02:11:03.076Z,63.49
2018-07-12T02:13:29.521Z,64.17
2018-07-12T02:15:55.961Z,64.06
2018-07-12T02:18:22.397Z,63.71
2018-07-12T02:20:48.844Z,64.20
2018-07-12T02:23:15.303Z,64.24
2018-07-12T02:25:41.734Z,62.75
2018-07-12T02:28:08.183Z,63.93
2018-07-12T02:30:34.623Z,64.29
2018-07-12T02:33:01.082Z,64.74
2018-07-12T02:35:27.522Z,64.68
2018-07-12T02:37:54.006Z,64.59
2018-07-12T02:40:20.438Z,64.54
2018-07-12T02:42:46.886Z,64.82
2018-07-12T02:45:13.318Z,64.47
2018-07-12T02:47:39.749Z,64.50
2018-07-12T02:50:06.197Z,64.69
2018-07-12T02:52:32.634Z,64.22
2018-07-12T02:54:59.077Z,64.13
2018-07-12T02:57:25.510Z,64.40
2018-07-12T02:59:51.948Z,64.91
2018-07-12T03:02:18.404Z,65.05
2018-07-12T03:04:44.837Z,64.75
2018-07-12T03:07:11.278Z,64.21
2018-07-12T03:09:37.711Z,64.05
2018-07-12T03:12:04.162Z,64.09
2018-07-12T03:14:30.591Z,64.31
2018-07-12T03:16:57.021Z,64.53
2018-07-12T03:19:23.455Z,64.49
2018-07-12T03:21:49.928Z,64.77
2018-07-12T03:24:16.382Z,64.82
2018-07-12T03:26:42.825Z,64.91
2018-07-12T03:29:09.270Z,64.83
2018-07-12T03:31:35.709Z,65.26
2018-07-12T03:34:02.154Z,65.13
2018-07-12T03:36:28.585Z,65.10
2018-07-12T03:38:55.024Z,65.19
2018-07-12T03:41:21.460Z,65.34
2018-07-12T03:43:47.944Z,65.59
2018-07-12T03:46:14.382Z,65.53
2018-07-12T03:48:40.825Z,65.33
2018-07-12T03:51:07.272Z,64.50
2018-07-12T03:53:33.698Z,64.13
2018-07-12T03:56:00.124Z,63.71
2018-07-12T03:58:26.572Z,64.27
2018-07-12T04:00:53.005Z,64.17
2018-07-12T04:03:19.451Z,64.49
2018-07-12T04:05:45.895Z,64.34
2018-07-12T04:08:12.314Z,64.64
2018-07-12T04:10:38.737Z,64.01
2018-07-12T04:13:05.181Z,63.94
2018-07-12T04:15:31.626Z,63.34
2018-07-12T04:17:58.082Z,63.21
2018-07-12T04:20:24.521Z,63.30
2018-07-12T04:22:50.965Z,63.03
2018-07-12T04:25:17.413Z,62.73
2018-07-12T04:27:43.840Z,62.56
2018-07-12T04:30:10.274Z,62.46
2018-07-12T04:32:36.713Z,62.70
2018-07-12T04:35:03.177Z,63.07
2018-07-12T04:37:29.617Z,62.65
2018-07-12T04:39:56.085Z,62.62
2018-07-12T04:42:22.527Z,61.93
2018-07-12T04:44:48.949Z,62.26
2018-07-12T04:47:15.369Z,62.38
2018-07-12T04:49:41.833Z,63.34
2018-07-12T04:52:08.278Z,63.03
2018-07-12T04:54:34.715Z,63.47
2018-07-12T04:57:01.154Z,63.41
2018-07-12T04:59:27.590Z,62.78
2018-07-12T05:01:54.026Z,63.37
2018-07-12T05:04:20.465Z,63.08
2018-07-12T05:06:46.883Z,62.51
2018-07-12T05:09:13.320Z,62.47
2018-07-12T05:11:39.750Z,61.76
2018-07-12T05:14:06.214Z,62.25
2018-07-12T05:16:32.638Z,62.42
2018-07-12T05:18:59.067Z,62.55
2018-07-12T05:21:25.504Z,61.81
2018-07-12T05:23:51.950Z,62.20
2018-07-12T05:26:18.402Z,62.27
2018-07-12T05:28:44.831Z,61.72
2018-07-12T05:31:11.280Z,61.81
2018-07-12T05:33:37.722Z,62.21
2018-07-12T05:36:50.133Z,62.61
2018-07-12T05:39:18.703Z,62.02
2018-07-12T05:41:46.405Z,62.23
2018-07-12T05:44:14.689Z,62.67
2018-07-12T05:46:42.643Z,62.00
2018-07-12T05:49:10.290Z,61.99
2018-07-12T05:51:37.959Z,62.67
2018-07-12T05:54:05.993Z,62.37
2018-07-12T05:56:33.658Z,62.46
2018-07-12T05:59:01.470Z,62.62
2018-07-12T06:01:40.361Z,62.45
2018-07-12T06:04:08.188Z,62.36
2018-07-12T06:06:35.876Z,62.34
2018-07-12T06:09:05.517Z,62.36
2018-07-12T06:11:33.210Z,62.20
2018-07-12T06:14:01.024Z,62.16
2018-07-12T06:16:28.686Z,62.73
2018-07-12T06:18:56.504Z,62.88
2018-07-12T06:21:24.210Z,62.18
2018-07-12T06:23:51.863Z,62.84
2018-07-12T06:26:19.529Z,62.91
2018-07-12T06:28:47.218Z,63.31
2018-07-12T06:31:14.902Z,62.95
2018-07-12T06:33:42.563Z,63.50
2018-07-12T06:36:10.241Z,62.78
2018-07-12T06:38:37.952Z,63.31
2018-07-12T06:41:05.661Z,62.95
2018-07-12T06:43:33.342Z,62.71
2018-07-12T06:46:00.995Z,63.08
2018-07-12T06:48:28.668Z,63.45
2018-07-12T06:50:56.325Z,63.95
2018-07-12T06:53:24.021Z,64.57
2018-07-12T06:55:51.859Z,64.74
2018-07-12T06:58:19.525Z,64.18
2018-07-12T07:00:47.222Z,65.04
2018-07-12T07:03:14.894Z,64.72
2018-07-12T07:05:42.560Z,64.72
2018-07-12T07:08:10.236Z,64.23
2018-07-12T07:10:38.923Z,64.21
2018-07-12T07:13:06.631Z,64.36
2018-07-12T07:15:34.298Z,64.39
2018-07-12T07:18:01.977Z,64.57
2018-07-12T07:20:29.653Z,64.89
2018-07-12T07:22:57.383Z,65.02
2018-07-12T07:25:25.053Z,65.44
2018-07-12T07:27:52.710Z,67.44
2018-07-12T07:30:20.378Z,66.06
2018-07-12T07:32:48.067Z,67.81
2018-07-12T07:35:15.770Z,68.88
2018-07-12T07:37:43.441Z,68.89
2018-07-12T07:40:11.090Z,69.22
2018-07-12T07:42:38.767Z,68.76
2018-07-12T07:45:06.469Z,69.92
2018-07-12T07:47:34.170Z,70.69
2018-07-12T07:50:01.840Z,69.81
2018-07-12T07:52:29.525Z,69.03
2018-07-12T07:54:57.205Z,69.54
2018-07-12T07:57:24.901Z,70.07
2018-07-12T07:59:52.599Z,69.86
2018-07-12T08:02:20.263Z,70.03
2018-07-12T08:04:47.941Z,70.68
2018-07-12T08:07:15.633Z,70.42
2018-07-12T08:09:43.303Z,70.36
2018-07-12T08:12:11.909Z,70.63
2018-07-12T08:14:39.762Z,70.20
2018-07-12T08:17:07.458Z,70.73
2018-07-12T08:19:35.198Z,70.08
2018-07-12T08:22:06.363Z,69.52
2018-07-12T08:24:34.544Z,69.80
2018-07-12T08:27:02.688Z,70.69
2018-07-12T08:29:30.977Z,70.44
2018-07-12T08:31:58.746Z,69.87
2018-07-12T08:34:26.701Z,70.33
2018-07-12T08:36:54.487Z,70.42
2018-07-12T08:39:22.259Z,70.71
2018-07-12T08:41:50.087Z,69.99
2018-07-12T08:44:18.082Z,70.68
2018-07-12T08:46:45.874Z,71.04
2018-07-12T08:49:13.577Z,70.59
2018-07-12T08:51:41.278Z,70.39
2018-07-12T08:54:08.929Z,70.89
2018-07-12T08:56:36.616Z,70.78
2018-07-12T08:59:04.333Z,69.87
2018-07-12T09:01:32.026Z,69.29
2018-07-12T09:03:59.687Z,69.75
2018-07-12T09:06:27.415Z,69.53
2018-07-12T09:08:55.100Z,70.60
2018-07-12T09:11:22.754Z,70.57
2018-07-12T09:13:50.503Z,70.65
2018-07-12T09:16:18.206Z,71.43
2018-07-12T09:18:45.901Z,70.66
2018-07-12T09:21:13.638Z,70.61
2018-07-12T09:23:41.306Z,70.18
2018-07-12T09:26:08.979Z,70.36
2018-07-12T09:28:36.741Z,69.78
2018-07-12T09:31:04.420Z,69.76
2018-07-12T09:33:32.077Z,70.45
2018-07-12T09:35:59.813Z,69.35
2018-07-12T09:38:45.693Z,69.17
2018-07-12T09:41:13.446Z,69.34
2018-07-12T09:43:42.229Z,68.77
2018-07-12T09:46:09.903Z,68.67
2018-07-12T09:48:39.570Z,68.55
2018-07-12T09:51:07.614Z,67.97
2018-07-12T09:53:35.282Z,67.53
2018-07-12T09:56:03.087Z,67.48
2018-07-12T09:58:30.919Z,67.72
2018-07-12T10:01:04.234Z,67.36
2018-07-12T10:03:37.419Z,66.58
2018-07-12T10:06:10.653Z,66.70
2018-07-12T10:08:43.814Z,66.66
2018-07-12T10:11:16.994Z,66.48
2018-07-12T10:13:50.185Z,66.14
2018-07-12T10:16:24.128Z,66.30
2018-07-12T10:18:51.841Z,66.30
2018-07-12T10:21:19.649Z,66.08
2018-07-12T10:23:47.340Z,65.38
2018-07-12T10:26:15.076Z,65.81
2018-07-12T10:28:42.986Z,65.48
2018-07-12T10:31:10.702Z,65.46
2018-07-12T10:33:38.387Z,64.70
2018-07-12T10:36:06.127Z,64.74
2018-07-12T10:38:33.837Z,63.71
2018-07-12T10:41:01.519Z,64.09
2018-07-12T10:43:29.212Z,64.54
2018-07-12T10:45:59.115Z,63.25
2018-07-12T10:48:26.793Z,63.58
2018-07-12T10:50:55.205Z,62.52
2018-07-12T10:53:22.905Z,62.21
2018-07-12T10:55:50.587Z,62.04
2018-07-12T10:58:18.251Z,62.06
2018-07-12T11:00:45.958Z,61.71
2018-07-12T11:03:13.618Z,60.63
2018-07-12T11:05:41.319Z,60.31
2018-07-12T11:08:09.082Z,60.02
2018-07-12T11:10:36.734Z,59.11
2018-07-12T11:13:13.832Z,58.30
2018-07-12T11:15:41.810Z,58.62
2018-07-12T11:18:09.491Z,57.70
2018-07-12T11:20:37.237Z,57.26
2018-07-12T11:23:04.950Z,57.88
2018-07-12T11:25:32.597Z,57.51
2018-07-12T11:28:00.465Z,57.77
2018-07-12T11:30:28.150Z,57.72
2018-07-12T11:32:55.811Z,57.52
2018-07-12T11:35:23.514Z,57.25
2018-07-12T11:37:51.281Z,57.08
2018-07-12T11:40:18.951Z,57.75
2018-07-12T11:42:46.682Z,57.94
2018-07-12T11:45:14.369Z,58.41
2018-07-12T11:47:42.063Z,58.31
2018-07-12T11:50:09.751Z,58.21
2018-07-12T11:52:37.475Z,58.31
2018-07-12T11:55:05.238Z,57.80
2018-07-12T11:57:33.318Z,57.01
2018-07-12T12:00:00.984Z,56.85
2018-07-12T12:02:28.637Z,57.09
2018-07-12T12:04:56.355Z,57.17
2018-07-12T12:07:24.034Z,57.57
2018-07-12T12:09:51.685Z,58.31
2018-07-12T12:12:19.384Z,57.92
2018-07-12T12:14:47.061Z,57.80
2018-07-12T12:17:14.737Z,57.63
2018-07-12T12:19:42.477Z,56.76
2018-07-12T12:22:10.134Z,56.86
2018-07-12T12:24:37.805Z,56.45
2018-07-12T12:27:05.673Z,56.62
2018-07-12T12:29:33.352Z,57.40
2018-07-12T12:32:01.030Z,58.81
2018-07-12T12:34:28.722Z,60.80
2018-07-12T12:36:56.421Z,61.70
2018-07-12T12:39:24.094Z,62.30
2018-07-12T12:41:51.847Z,63.22
2018-07-12T12:44:19.525Z,63.50
2018-07-12T12:46:47.182Z,63.77
2018-07-12T12:49:14.963Z,64.25
2018-07-12T12:51:42.626Z,67.57
2018-07-12T12:54:10.299Z,67.41
2018-07-12T12:56:38.162Z,66.45
2018-07-12T12:59:05.843Z,65.81
2018-07-12T13:01:33.651Z,65.87
2018-07-12T13:04:01.443Z,66.50
2018-07-12T13:06:29.119Z,66.56
2018-07-12T13:08:56.786Z,66.53
2018-07-12T13:11:24.450Z,66.47
2018-07-12T13:13:52.142Z,67.41
2018-07-12T13:16:21.094Z,67.29
2018-07-12T13:18:48.763Z,67.02
2018-07-12T13:21:16.426Z,67.47
2018-07-12T13:23:44.106Z,67.82
2018-07-12T13:26:11.889Z,67.81
2018-07-12T13:28:39.500Z,67.56
2018-07-12T13:31:07.203Z,67.48
2018-07-12T13:33:34.885Z,67.98
2018-07-12T13:36:02.568Z,67.97
2018-07-12T13:38:30.226Z,69.15
2018-07-12T13:40:57.885Z,67.99
2018-07-12T13:43:25.559Z,68.88
2018-07-12T13:45:53.245Z,69.41
2018-07-12T13:48:20.931Z,69.28
2018-07-12T13:50:49.900Z,69.27
2018-07-12T13:53:17.545Z,68.86
2018-07-12T13:55:45.211Z,67.83
2018-07-12T13:58:12.871Z,68.77
2018-07-12T14:00:40.534Z,67.81
2018-07-12T14:03:08.197Z,67.20
2018-07-12T14:05:35.908Z,67.40
2018-07-12T14:08:03.597Z,67.84
2018-07-12T14:10:31.306Z,66.55
2018-07-12T14:12:58.977Z,66.50
2018-07-12T14:15:26.657Z,65.96
2018-07-12T14:17:54.309Z,65.40
2018-07-12T14:20:22.017Z,65.17
2018-07-12T14:22:49.669Z,65.93
2018-07-12T14:25:17.357Z,65.45
2018-07-12T14:27:45.034Z,64.81
2018-07-12T14:30:12.710Z,64.57
2018-07-12T14:32:40.394Z,63.61
2018-07-12T14:35:08.057Z,63.69
2018-07-12T14:37:35.726Z,63.64
2018-07-12T14:40:03.445Z,63.40
2018-07-12T14:42:31.136Z,63.33
2018-07-12T14:44:58.805Z,62.99
2018-07-12T14:47:26.597Z,63.28
2018-07-12T14:49:54.276Z,62.85
2018-07-12T14:52:22.672Z,62.44
2018-07-12T14:54:50.396Z,61.67
2018-07-12T14:57:18.095Z,61.56
2018-07-12T14:59:45.798Z,61.09
2018-07-12T15:02:13.582Z,60.78
2018-07-12T15:04:41.282Z,61.01
2018-07-12T15:07:08.978Z,60.40
2018-07-12T15:09:36.672Z,60.76
2018-07-12T15:12:04.351Z,59.97
2018-07-12T15:14:32.010Z,59.95
2018-07-12T15:16:59.720Z,59.75
2018-07-12T15:19:27.456Z,59.45
2018-07-12T15:21:55.073Z,58.63
2018-07-12T15:24:22.750Z,58.66
2018-07-12T15:26:50.443Z,58.39
2018-07-12T15:29:18.168Z,58.10
2018-07-12T15:31:45.832Z,58.33
2018-07-12T15:34:13.482Z,58.15
2018-07-12T15:36:41.131Z,58.15
2018-07-12T15:39:09.151Z,58.06
2018-07-12T15:41:37.214Z,57.74
2018-07-12T15:44:04.922Z,57.34
2018-07-12T15:46:32.675Z,57.45
2018-07-12T15:49:00.371Z,57.49
2018-07-12T15:51:28.052Z,57.31
2018-07-12T15:53:55.702Z,56.87
2018-07-12T15:56:23.367Z,57.28
2018-07-12T15:58:51.047Z,57.18
2018-07-12T16:01:18.710Z,57.03
2018-07-12T16:03:46.381Z,57.34
2018-07-12T16:06:14.049Z,57.37
2018-07-12T16:08:41.698Z,56.94
2018-07-12T16:11:09.383Z,57.07
2018-07-12T16:13:37.081Z,57.01
2018-07-12T16:16:04.785Z,56.82
2018-07-12T16:18:32.457Z,56.57
2018-07-12T16:21:00.148Z,56.62
2018-07-12T16:23:27.853Z,56.38
2018-07-12T16:25:55.526Z,56.07
2018-07-12T16:28:23.202Z,55.89
2018-07-12T16:30:50.873Z,56.11
2018-07-12T16:33:18.550Z,56.24
2018-07-12T16:35:46.278Z,56.31
2018-07-12T16:38:13.986Z,56.14
2018-07-12T16:40:41.644Z,56.14
2018-07-12T16:43:09.298Z,56.50
2018-07-12T16:45:36.984Z,56.71
2018-07-12T16:48:04.715Z,56.60
2018-07-12T16:50:32.394Z,56.67
2018-07-12T16:53:00.050Z,56.63
2018-07-12T16:55:27.754Z,56.77
2018-07-12T16:57:55.485Z,56.99
2018-07-12T17:00:23.206Z,56.99
2018-07-12T17:02:50.885Z,57.49
2018-07-12T17:05:18.631Z,57.69
2018-07-12T17:07:46.359Z,57.68
2018-07-12T17:10:14.037Z,57.85
2018-07-12T17:12:41.783Z,57.54
2018-07-12T17:15:09.642Z,57.62
2018-07-12T17:17:37.300Z,57.71
2018-07-12T17:20:04.970Z,58.02
2018-07-12T17:22:32.639Z,57.75
2018-07-12T17:25:00.293Z,58.18
2018-07-12T17:27:27.962Z,58.09
2018-07-12T17:29:55.654Z,57.99
2018-07-12T17:32:23.335Z,57.49
2018-07-12T17:34:51.016Z,57.40
2018-07-12T17:37:18.702Z,57.46
2018-07-12T17:39:46.374Z,57.19
2018-07-12T17:42:14.055Z,57.30
2018-07-12T17:44:41.737Z,57.09
2018-07-12T17:47:09.394Z,57.01
2018-07-12T17:49:37.299Z,57.19
2018-07-12T17:52:05.157Z,57.15
2018-07-12T17:54:32.820Z,56.98
2018-07-12T17:57:00.493Z,56.76
2018-07-12T17:59:28.133Z,56.57
2018-07-12T18:01:55.798Z,56.78
2018-07-12T18:04:23.491Z,56.54
2018-07-12T18:06:51.308Z,56.76
2018-07-12T18:09:18.962Z,56.95
2018-07-12T18:11:46.657Z,57.24
2018-07-12T18:14:14.445Z,56.89
2018-07-12T18:16:42.121Z,57.14
2018-07-12T18:19:09.765Z,57.37
2018-07-12T18:21:37.564Z,57.21
2018-07-12T18:24:05.250Z,57.04
2018-07-12T18:26:32.902Z,56.93
2018-07-12T18:29:00.675Z,56.61
2018-07-12T18:31:28.328Z,56.96
2018-07-12T18:33:55.992Z,56.69
2018-07-12T18:36:23.886Z,56.63
2018-07-12T18:38:51.531Z,56.62
2018-07-12T18:41:19.187Z,56.65
2018-07-12T18:43:46.971Z,56.54
2018-07-12T18:46:14.628Z,56.93
2018-07-12T18:48:42.291Z,57.61
2018-07-12T18:51:10.082Z,56.59
2018-07-12T18:53:37.740Z,56.87
2018-07-12T18:56:05.474Z,56.96
2018-07-12T18:58:33.150Z,56.78
2018-07-12T19:01:00.773Z,56.97
2018-07-12T19:03:28.447Z,57.02
2018-07-12T19:05:56.129Z,57.42
2018-07-12T19:08:23.780Z,58.25
2018-07-12T19:10:51.484Z,57.17
2018-07-12T19:13:19.160Z,57.39
2018-07-12T19:15:46.820Z,57.31
2018-07-12T19:18:14.510Z,57.17
2018-07-12T19:20:42.194Z,56.78
2018-07-12T19:23:09.891Z,56.74
2018-07-12T19:25:37.562Z,57.74
2018-07-12T19:28:05.267Z,57.17
2018-07-12T19:30:32.918Z,57.54
2018-07-12T19:33:00.578Z,57.35
2018-07-12T19:35:28.226Z,56.72
2018-07-12T19:37:55.916Z,56.66
2018-07-12T19:40:23.597Z,57.16
2018-07-12T19:42:51.354Z,57.65
2018-07-12T19:45:19.033Z,56.84
2018-07-12T19:47:46.732Z,57.27
2018-07-12T19:50:14.416Z,57.58
2018-07-12T19:52:42.094Z,57.56
2018-07-12T19:55:09.758Z,58.19
2018-07-12T19:57:37.458Z,58.21
2018-07-12T20:00:05.350Z,58.32
2018-07-12T20:02:33.031Z,59.15
2018-07-12T20:05:00.698Z,60.10
2018-07-12T20:07:28.384Z,59.79
2018-07-12T20:09:56.046Z,60.35
2018-07-12T20:12:23.734Z,59.58
2018-07-12T20:14:51.396Z,60.11
2018-07-12T20:17:19.065Z,61.05
2018-07-12T20:19:46.867Z,60.42
2018-07-12T20:22:14.574Z,60.28
2018-07-12T20:24:42.229Z,60.21
2018-07-12T20:27:09.934Z,60.75
2018-07-12T20:29:37.581Z,60.11
2018-07-12T20:32:05.290Z,59.93
2018-07-12T20:34:32.954Z,60.27
2018-07-12T20:37:00.626Z,62.36
2018-07-12T20:39:28.284Z,62.81
2018-07-12T20:41:55.961Z,61.42
2018-07-12T20:44:23.646Z,61.68
2018-07-12T20:47:05.910Z,60.89
2018-07-12T20:49:33.602Z,61.57
2018-07-12T20:52:01.284Z,62.65
2018-07-12T20:54:29.002Z,62.24
2018-07-12T20:56:56.686Z,61.58
2018-07-12T20:59:24.350Z,61.73
2018-07-12T21:01:52.034Z,61.31
2018-07-12T21:04:19.713Z,61.28
2018-07-12T21:06:47.378Z,60.98
2018-07-12T21:09:15.030Z,61.20
2018-07-12T21:11:42.681Z,61.35
2018-07-12T21:14:10.364Z,61.32
2018-07-12T21:16:38.014Z,61.62
2018-07-12T21:19:05.695Z,61.30
2018-07-12T21:21:33.394Z,62.07
2018-07-12T21:24:01.058Z,61.56
2018-07-12T21:26:28.705Z,62.14
2018-07-12T21:28:56.351Z,61.96
2018-07-12T21:31:23.993Z,62.40
2018-07-12T21:33:51.921Z,63.06
2018-07-12T21:36:19.583Z,62.23
2018-07-12T21:38:47.265Z,62.91
2018-07-12T21:41:14.931Z,63.82
2018-07-12T21:43:42.570Z,63.18
2018-07-12T21:46:10.239Z,62.74
2018-07-12T21:48:37.909Z,63.64
2018-07-12T21:51:05.581Z,63.91
2018-07-12T21:53:33.230Z,63.91
2018-07-12T21:56:00.911Z,63.53
2018-07-12T21:58:28.596Z,63.94
2018-07-12T22:00:56.260Z,64.09
2018-07-12T22:03:23.907Z,64.68
2018-07-12T22:05:51.574Z,64.96
2018-07-12T22:08:25.347Z,64.15
2018-07-12T22:11:00.893Z,65.03
2018-07-12T22:13:29.283Z,64.81
2018-07-12T22:15:56.965Z,64.10
2018-07-12T22:18:24.626Z,63.89
2018-07-12T22:20:52.277Z,63.71
2018-07-12T22:23:19.946Z,65.64
2018-07-12T22:25:47.616Z,65.02
2018-07-12T22:28:15.367Z,64.21
2018-07-12T22:30:43.198Z,65.27
2018-07-12T22:33:10.845Z,65.30
2018-07-12T22:35:38.568Z,64.51
2018-07-12T22:38:06.241Z,64.90
2018-07-12T22:40:33.921Z,65.36
2018-07-12T22:43:01.579Z,65.40
2018-07-12T22:45:29.270Z,65.35
2018-07-12T22:47:57.040Z,65.05
2018-07-12T22:50:24.701Z,64.24
2018-07-12T22:52:52.434Z,65.66
2018-07-12T22:55:20.101Z,64.62
2018-07-12T22:57:47.794Z,64.64
2018-07-12T23:00:15.465Z,65.23
2018-07-12T23:02:43.126Z,65.95
2018-07-12T23:05:10.799Z,65.62
2018-07-12T23:07:38.445Z,66.88
2018-07-12T23:10:06.171Z,66.08
2018-07-12T23:12:33.821Z,66.76
2018-07-12T23:15:01.518Z,66.94
2018-07-12T23:17:29.194Z,65.76
2018-07-12T23:19:56.870Z,65.50
2018-07-12T23:22:24.525Z,66.74
2018-07-12T23:24:52.228Z,66.19
2018-07-12T23:27:19.897Z,66.38
2018-07-12T23:29:47.705Z,65.54
2018-07-12T23:32:15.426Z,66.35
2018-07-12T23:34:43.094Z,66.07
2018-07-12T23:37:10.822Z,66.13
2018-07-12T23:39:38.477Z,66.04
2018-07-12T23:42:06.135Z,67.31
2018-07-12T23:44:33.813Z,66.75
2018-07-12T23:47:01.529Z,66.07
2018-07-12T23:49:29.226Z,66.46
2018-07-12T23:51:56.904Z,67.23
2018-07-12T23:54:24.585Z,66.90
2018-07-12T23:56:52.475Z,67.62
2018-07-12T23:59:20.321Z,67.20
